Flight Track Log - Related Links

Times and Time Zones

All times are in EDT time to prevent confusion due to time zone crossing. See the SKW5576 flight status page for this flight to view local times or setup timezone preferences in your user account.

Time Position Orientation Groundspeed Altitude Reporting Facility
EDT Latitude Longitude Course Direction KTS MPH feet Rate Location/Type
Mon 11:19:18 AM 39.8333 -104.7333 346° North 188 216 6,100  Level Denver TRACON
Mon 11:20:24 AM 39.8667 -104.8167 298° West 235 270 8,100 2,075 Climbing Denver TRACON
Mon 11:21:05 AM 39.9100 -104.8492 330° Northwest 250 288 9,800 2,447 Climbing Denver Center
Mon 11:22:00 AM 40.2736 -104.8037 347° North  Level FlightAware Approximate
Mon 11:22:07 AM 39.9767 -104.8733 344° North 252 290 12,300  Level Denver Center
Mon 11:23:00 AM 40.3797 -104.8377 346° North  Level FlightAware Approximate
Mon 11:23:09 AM 40.0558 -104.8706 North 263 303 14,500  Level Denver Center
Mon 11:24:00 AM 40.4856 -104.8730 346° North  Level FlightAware Approximate
Mon 11:24:11 AM 40.1358 -104.8692 North 292 336 15,600  Level Denver Center
Mon 11:25:13 AM 40.2328 -104.8672 North 322 371 16,900 1,403 Climbing Denver Center
Mon 11:26:15 AM 40.3258 -104.8653 North 333 383 18,500 1,355 Climbing Denver Center
Mon 11:27:17 AM 40.4308 -104.8622 North 347 399 19,700 1,065 Climbing Denver Center
Mon 11:28:19 AM 40.5319 -104.8606 North 361 415 20,700 1,113 Climbing Denver Center
Mon 11:29:21 AM 40.6350 -104.8556 North 370 426 22,000 1,210 Climbing Denver Center
Mon 11:30:23 AM 40.7353 -104.8528 North 365 420 23,200 1,065 Climbing Denver Center
Mon 11:31:25 AM 40.8422 -104.8708 353° North 353 406 24,200 968 Climbing Denver Center
Mon 11:32:27 AM 40.9339 -104.9206 338° Northwest 368 423 25,200 871 Climbing Denver Center
Mon 11:33:29 AM 41.0414 -104.9744 339° North 367 422 26,000 624 Climbing Denver Center
Mon 11:34:32 AM 41.1353 -105.0192 340° North 371 427 26,500 624 Climbing Denver Center
Mon 11:35:34 AM 41.2478 -105.0758 339° North 381 438 27,300 634 Climbing Denver Center
Mon 11:36:35 AM 41.2953 -105.1739 303° West 387 445 27,800 532 Climbing Denver Center
Mon 11:37:38 AM 41.3500 -105.3508 292° West 402 463 28,400 528 Climbing Denver Center
Mon 11:38:40 AM 41.3925 -105.4869 293° West 411 473 28,900 532 Climbing Denver Center
Mon 11:39:42 AM 41.4344 -105.6247 292° West 415 478 29,500 581 Climbing Denver Center
Mon 11:40:44 AM 41.4828 -105.7831 292° West 415 478 30,100 532 Climbing Denver Center
Mon 11:41:46 AM 41.5250 -105.9219 292° West 419 482 30,600 629 Climbing Denver Center
Mon 11:42:48 AM 41.5733 -106.0836 292° West 419 482 31,400 629 Climbing Denver Center
Mon 11:43:50 AM 41.6142 -106.2197 292° West 414 476 31,900 290 Climbing Denver Center
Mon 11:44:52 AM 41.6611 -106.3806 291° West 416 479 32,000 48 Climbing Denver Center
Mon 11:45:54 AM 41.7031 -106.5261 291° West 422 486 32,000  Level Denver Center
Mon 11:47:08 AM 41.7547 -106.6981 292° West 440 506 32,000  Level Denver Center
Mon 11:48:10 AM 41.8050 -106.8694 292° West 444 511 32,000  Level Denver Center
Mon 11:49:13 AM 41.8558 -107.0436 291° West 449 517 32,000  Level Denver Center
Mon 11:50:15 AM 41.8983 -107.1922 291° West 448 516 32,000  Level Denver Center
Mon 11:51:17 AM 41.9469 -107.3647 291° West 445 512 32,000  Level Denver Center
Mon 11:52:19 AM 41.9886 -107.5125 291° West 443 510 32,000  Level Denver Center
Mon 11:53:21 AM 42.0389 -107.6856 291° West 444 511 32,000  Level Denver Center
Mon 11:54:01 AM 42.0647 -107.7836 290° West 440 506 32,000  Level Salt Lake Center
Mon 11:55:03 AM 42.1061 -107.9317 291° West 440 506 32,000  Level Salt Lake Center
Mon 11:56:05 AM 42.1533 -108.1042 290° West 441 507 32,000  Level Salt Lake Center
Mon 11:57:07 AM 42.1942 -108.2531 290° West 443 510 32,000  Level Salt Lake Center
Mon 11:58:09 AM 42.2419 -108.4292 290° West 449 517 32,000  Level Salt Lake Center
Mon 11:59:11 AM 42.2847 -108.5792 291° West 449 517 32,000  Level Salt Lake Center
Mon 12:00:13 PM 42.3303 -108.7511 290° West 440 506 32,000  Level Salt Lake Center
Mon 12:01:15 PM 42.3692 -108.8997 290° West 440 506 32,000  Level Salt Lake Center
Mon 12:02:17 PM 42.4147 -109.0731 290° West 441 507 32,000  Level Salt Lake Center
Mon 12:03:19 PM 42.4539 -109.2206 290° West 438 504 32,000  Level Salt Lake Center
Mon 12:04:21 PM 42.4994 -109.3928 290° West 437 503 32,000  Level Salt Lake Center
Mon 12:05:23 PM 42.5381 -109.5406 290° West 437 503 32,000  Level Salt Lake Center
Mon 12:06:25 PM 42.5828 -109.7131 289° West 436 502 32,000  Level Salt Lake Center
Mon 12:07:27 PM 42.6197 -109.8619 289° West 437 503 32,000  Level Salt Lake Center
Mon 12:08:29 PM 42.6642 -110.0342 289° West 436 502 32,000  Level Salt Lake Center
Mon 12:09:31 PM 42.7028 -110.1825 290° West 436 502 32,000  Level Salt Lake Center
Mon 12:10:33 PM 42.7458 -110.3553 289° West 434 499 32,000  Level Salt Lake Center
Mon 12:11:35 PM 42.7831 -110.5047 289° West 436 502 32,000  Level Salt Lake Center
Mon 12:12:37 PM 42.8258 -110.6742 289° West 431 496 32,000  Level Salt Lake Center
Mon 12:13:39 PM 42.8628 -110.8242 289° West 434 499 32,000  Level Salt Lake Center
Mon 12:14:41 PM 42.9058 -110.9967 289° West 431 496 32,000  Level Salt Lake Center
Mon 12:15:43 PM 42.9419 -111.1458 288° West 432 497 32,000  Level Salt Lake Center
Mon 12:16:45 PM 42.9844 -111.3203 288° West 433 498 32,000  Level Salt Lake Center
Mon 12:17:47 PM 43.0203 -111.4692 288° West 433 498 32,000  Level Salt Lake Center
Mon 12:18:49 PM 43.0606 -111.6403 288° West 427 491 32,000  Level Salt Lake Center
Mon 12:19:51 PM 43.0972 -111.7878 289° West 427 491 32,000  Level Salt Lake Center
Mon 12:20:53 PM 43.1331 -111.9381 288° West 429 494 32,000  Level Salt Lake Center
Mon 12:21:55 PM 43.1731 -112.1153 287° West 435 501 32,000  Level Salt Lake Center
Mon 12:22:57 PM 43.2075 -112.2656 288° West 431 496 32,000  Level Salt Lake Center
Mon 12:23:59 PM 43.2494 -112.4406 288° West 432 497 32,000  Level Salt Lake Center
Mon 12:25:01 PM 43.2831 -112.5919 287° West 433 498 32,000  Level Salt Lake Center
Mon 12:26:03 PM 43.3233 -112.7672 288° West 432 497 32,000  Level Salt Lake Center
Mon 12:27:05 PM 43.3564 -112.9175 287° West 430 495 32,000  Level Salt Lake Center
Mon 12:28:07 PM 43.3958 -113.0925 287° West 429 494 32,000  Level Salt Lake Center
Mon 12:29:09 PM 43.4294 -113.2442 287° West 433 498 32,000  Level Salt Lake Center
Mon 12:30:11 PM 43.4625 -113.3936 287° West 429 494 32,000  Level Salt Lake Center
Mon 12:31:13 PM 43.5014 -113.5742 287° West 441 507 32,000  Level Salt Lake Center
Mon 12:32:15 PM 43.5336 -113.7269 286° West 434 499 32,000  Level Salt Lake Center
Mon 12:33:17 PM 43.5694 -113.8944 287° West 433 498 32,000  Level Salt Lake Center
Mon 12:34:19 PM 43.6078 -114.0711 287° West 431 496 32,000  Level Salt Lake Center
Mon 12:35:21 PM 43.6400 -114.2222 286° West 429 494 32,000  Level Salt Lake Center
Mon 12:36:23 PM 43.6772 -114.3981 286° West 426 490 32,000  Level Salt Lake Center
Mon 12:37:25 PM 43.7075 -114.5481 286° West 425 489 32,000  Level Salt Lake Center
Mon 12:38:27 PM 43.7389 -114.6961 286° West 422 486 32,000  Level Salt Lake Center
Mon 12:39:29 PM 43.7744 -114.8683 286° West 419 482 32,000  Level Salt Lake Center
Mon 12:40:31 PM 43.8047 -115.0164 286° West 419 482 32,000  Level Salt Lake Center
Mon 12:41:33 PM 43.8400 -115.1883 286° West 414 476 32,000  Level Salt Lake Center
Mon 12:42:35 PM 43.8681 -115.3350 285° West 411 473 32,000  Level Salt Lake Center
Mon 12:43:37 PM 43.9019 -115.5053 285° West 410 472 32,000  Level Salt Lake Center
Mon 12:44:39 PM 43.9306 -115.6514 285° West 409 471 32,000  Level Salt Lake Center
Mon 12:45:41 PM 43.9636 -115.8214 285° West 409 471 32,000  Level Salt Lake Center
Mon 12:46:43 PM 43.9925 -115.9650 286° West 403 464 32,000  Level Salt Lake Center
Mon 12:47:44 PM 44.0200 -116.1067 285° West 397 457 32,000  Level Salt Lake Center
Mon 12:48:46 PM 44.0506 -116.2697 285° West 389 448 32,000  Level Salt Lake Center
Mon 12:49:48 PM 44.0778 -116.4100 285° West 389 448 32,000  Level Salt Lake Center
Mon 12:50:50 PM 44.1092 -116.5747 285° West 392 451 32,000  Level Salt Lake Center
Mon 12:51:52 PM 44.1353 -116.7156 285° West 391 450 32,000  Level Salt Lake Center
Mon 12:52:53 PM 44.1614 -116.8558 285° West 390 449 32,000  Level Salt Lake Center
Mon 12:53:55 PM 44.1919 -117.0222 284° West 395 455 32,000  Level Salt Lake Center
Mon 12:54:57 PM 44.2178 -117.1656 284° West 397 457 32,000  Level Salt Lake Center
Mon 12:55:59 PM 44.2486 -117.3336 284° West 400 460 32,000  Level Salt Lake Center
Mon 12:56:49 PM 44.2700 -117.4519 284° West 396 456 32,000  Level Seattle Center
Mon 12:57:50 PM 44.2958 -117.5939 284° West 395 455 32,000  Level Seattle Center
Mon 12:58:51 PM 44.3239 -117.7603 283° West 393 452 32,000  Level Seattle Center
Mon 12:59:53 PM 44.3500 -117.9042 284° West 397 457 32,000  Level Seattle Center
Mon 01:01:00 PM 44.3791 -118.0714 284° West  Level FlightAware Approximate
Mon 01:01:55 PM 44.4019 -118.2042 284° West 392 451 32,000  Level Seattle Center
Mon 01:02:56 PM 44.4264 -118.3497 283° West 386 444 32,000  Level Seattle Center
Mon 01:03:11 PM 44.4344 -118.3956 284° West 384 442 32,000  Level Salt Lake Center
Mon 01:04:13 PM 44.4553 -118.5228 283° West 382 440 32,000  Level Salt Lake Center
Mon 01:04:58 PM 44.4739 -118.6381 283° West 381 438 32,000  Level Seattle Center
Mon 01:05:59 PM 44.4997 -118.7853 284° West 389 448 32,000  Level Seattle Center
Mon 01:07:00 PM 44.5233 -118.9308 283° West 385 443 32,000  Level Seattle Center
Mon 01:08:01 PM 44.5478 -119.0775 283° West 387 445 32,000  Level Seattle Center
Mon 01:09:02 PM 44.5833 -119.2167 290° West 382 440 32,000 -148 Level Seattle Center
Mon 01:10:03 PM 44.6772 -119.3425 316° Northwest 388 447 31,700 -393 Descending Seattle Center
Mon 01:11:04 PM 44.7564 -119.4486 316° Northwest 392 451 31,200 -541 Descending Seattle Center
Mon 01:12:05 PM 44.8322 -119.5475 317° Northwest 379 436 30,600 -541 Descending Seattle Center
Mon 01:13:06 PM 44.9044 -119.6381 318° Northwest 355 409 30,100 -295 Descending Seattle Center
Mon 01:14:07 PM 44.9603 -119.7475 306° West 350 403 30,000 -49 Descending Seattle Center
Mon 01:15:08 PM 45.0008 -119.8711 295° West 352 405 30,000  Level Seattle Center
Mon 01:16:09 PM 45.0411 -119.9928 295° West 356 410 30,000  Level Seattle Center
Mon 01:17:10 PM 45.0908 -120.1456 295° West 362 417 30,000  Level Seattle Center
Mon 01:18:11 PM 45.1325 -120.2750 295° West 364 419 30,000 -393 Level Seattle Center
Mon 01:19:12 PM 45.1744 -120.4061 294° West 365 420 29,200 -885 Descending Seattle Center
Mon 01:20:13 PM 45.2158 -120.5322 295° West 357 411 28,200 -1,033 Descending Seattle Center
Mon 01:21:14 PM 45.2556 -120.6547 295° West 345 397 27,100 -1,426 Descending Seattle Center
Mon 01:22:15 PM 45.2939 -120.7778 294° West 342 394 25,300 -1,770 Descending Seattle Center
Mon 01:23:16 PM 45.3331 -120.9000 295° West 339 390 23,500 -1,770 Descending Seattle Center
Mon 01:24:17 PM 45.3717 -121.0197 295° West 335 386 21,700 -1,623 Descending Seattle Center
Mon 01:25:18 PM 45.4089 -121.1386 294° West 331 381 20,200 -1,073 Descending Seattle Center
Mon 01:26:20 PM 45.4361 -121.2606 288° West 323 372 19,500 -1,129 Descending Seattle Center
Mon 01:26:43 PM 45.4453 -121.3286 281° West 313 360 18,600 -1,770 Descending Seattle Center
Mon 01:27:21 PM 45.4533 -121.4078 278° West 314 361 17,700 -1,636 Descending Seattle Center
Mon 01:27:38 PM 45.4583 -121.4406 282° West 314 361 17,100 -1,967 Descending Seattle Center
Mon 01:28:22 PM 45.4678 -121.5283 279° West 311 358 15,700 -1,829 Descending Seattle Center
Mon 01:29:23 PM 45.4814 -121.6442 280° West 301 346 13,900 -1,721 Descending Seattle Center
Mon 01:30:24 PM 45.4947 -121.7569 280° West 290 334 12,200 -1,672 Descending Seattle Center
Mon 01:31:25 PM 45.4978 -121.8708 272° West 288 331 10,500 -1,475 Descending Seattle Center
Mon 01:32:26 PM 45.4950 -121.9672 268° West 274 315 9,200 -1,200 Descending Seattle Center
Mon 01:33:30 PM 45.4917 -122.1061 268° West 283 326 8,000 -1,426 Descending Seattle Center
Mon 01:34:28 PM 45.4911 -122.2133 270° West 282 325 6,300 -1,513 Descending Seattle Center
Mon 01:35:29 PM 45.4883 -122.3097 268° West 258 297 5,000 -1,373 Descending Seattle Center
Mon 01:36:26 PM 45.5114 -122.3819 295° West 212 244 3,600 -1,426 Descending Seattle Center
Mon 01:37:31 PM 45.5369 -122.4450 300° West 194 223 2,100 -1,029 Descending Seattle Center
Mon 01:38:46 PM 45.5600 -122.5039 299° West 134 154 1,200 -738 Descending Seattle Center
Mon 01:39:33 PM 45.5739 -122.5392 299° West 153 176 600 -500 Descending Seattle Center
Mon 01:40:34 PM 45.5894 -122.5836 297° West 147 169 300 -295 Descending Seattle Center

Login

Don't have an account? Register now (free) for customized features, flight alerts, and more!